Time;durP1;ratioP1;P1;durP2;ratioP2;P2;SDS_P1;SDS_P2;PMS_P1;PMS_P2;Temp;Humidity;BMP_temperature;BMP_pressure;BME280_temperature;BME280_humidity;BME280_pressure;Samples;Min_cycle;Max_cycle;Signal;HPM_P1;HPM_P2
2023/05/10 00:02:24;;;;;;;0.75;0.50;;;20.50;84.80;;;;;;4993490;28;20064;-76
2023/05/10 00:04:50;;;;;;;0.30;0.30;;;20.50;84.80;;;;;;5000555;28;20496;-76
2023/05/10 00:07:17;;;;;;;0.20;0.20;;;20.50;84.80;;;;;;5001677;28;20046;-76
2023/05/10 00:09:43;;;;;;;1.67;0.30;;;20.50;84.70;;;;;;5005924;28;20052;-76
2023/05/10 00:12:08;;;;;;;1.60;0.40;;;20.50;84.60;;;;;;5004950;28;20038;-76
2023/05/10 00:14:34;;;;;;;1.80;0.40;;;20.50;84.50;;;;;;4997832;28;20054;-76
2023/05/10 00:16:59;;;;;;;0.17;0.17;;;20.50;84.60;;;;;;5001407;28;20121;-76
2023/05/10 00:19:25;;;;;;;0.40;0.30;;;20.50;84.60;;;;;;5005160;28;20141;-76
2023/05/10 00:21:51;;;;;;;0.47;0.40;;;20.50;84.60;;;;;;5005577;28;20042;-76
2023/05/10 00:24:16;;;;;;;1.65;0.30;;;20.50;84.50;;;;;;5004494;28;20046;-76
2023/05/10 00:26:42;;;;;;;0.50;0.40;;;20.50;84.40;;;;;;5004368;28;20437;-76
2023/05/10 00:29:07;;;;;;;0.70;0.40;;;20.50;84.50;;;;;;5002284;28;20397;-76
2023/05/10 00:31:33;;;;;;;1.17;0.45;;;20.50;84.60;;;;;;5001395;28;20046;-76
2023/05/10 00:33:58;;;;;;;1.75;0.30;;;20.50;84.50;;;;;;5003348;28;20076;-76
2023/05/10 00:36:24;;;;;;;0.95;0.45;;;20.50;84.50;;;;;;5004632;28;20045;-76
2023/05/10 00:38:50;;;;;;;0.77;0.50;;;20.50;84.60;;;;;;5001658;28;20637;-76
2023/05/10 00:41:15;;;;;;;0.70;0.50;;;20.50;84.60;;;;;;5000776;28;20050;-76
2023/05/10 00:43:41;;;;;;;0.57;0.50;;;20.50;84.70;;;;;;5004332;28;20052;-76
2023/05/10 00:46:06;;;;;;;0.85;0.50;;;20.50;84.60;;;;;;5000161;28;20452;-76
2023/05/10 00:48:32;;;;;;;0.68;0.50;;;20.50;84.70;;;;;;5007452;28;20053;-76
2023/05/10 00:50:57;;;;;;;0.73;0.50;;;20.50;84.60;;;;;;5001600;28;20042;-76
2023/05/10 00:53:23;;;;;;;0.60;0.38;;;20.40;84.50;;;;;;5005195;28;20053;-76
2023/05/10 00:55:49;;;;;;;1.73;0.52;;;20.50;84.60;;;;;;4987290;28;20058;-75
2023/05/10 00:58:14;;;;;;;0.88;0.43;;;20.50;84.60;;;;;;5004124;28;20058;-76
2023/05/10 01:00:41;;;;;;;0.40;0.40;;;20.40;84.60;;;;;;5034849;28;20044;-76
2023/05/10 01:03:07;;;;;;;0.50;0.40;;;20.40;84.60;;;;;;5022870;28;20034;-76
2023/05/10 01:05:32;;;;;;;0.70;0.60;;;20.40;84.60;;;;;;5002807;28;20046;-76
2023/05/10 01:07:58;;;;;;;1.52;0.50;;;20.40;84.60;;;;;;5003561;28;20522;-76
2023/05/10 01:10:24;;;;;;;1.40;0.68;;;20.40;84.60;;;;;;5001918;28;20128;-76
2023/05/10 01:12:49;;;;;;;1.08;0.60;;;20.40;84.60;;;;;;5006387;28;20046;-76
2023/05/10 01:15:15;;;;;;;1.13;0.60;;;20.40;84.60;;;;;;4998937;28;20073;-76
2023/05/10 01:17:41;;;;;;;0.60;0.38;;;20.40;84.60;;;;;;5020686;28;20049;-76
2023/05/10 01:20:10;;;;;;;0.40;0.40;;;20.40;84.60;;;;;;5015100;28;20076;-76
2023/05/10 01:23:03;;;;;;;0.68;0.40;;;20.40;84.60;;;;;;5003022;28;20049;-76
2023/05/10 01:25:34;;;;;;;0.77;0.40;;;20.40;84.60;;;;;;5001306;28;20524;-76
2023/05/10 01:28:24;;;;;;;0.60;0.50;;;20.40;84.60;;;;;;5028252;28;20034;-76
2023/05/10 01:31:01;;;;;;;0.35;0.35;;;20.40;84.60;;;;;;5005818;28;20625;-76
2023/05/10 01:33:49;;;;;;;1.23;0.52;;;20.40;84.70;;;;;;5005310;28;20038;-76
2023/05/10 01:36:33;;;;;;;0.50;0.30;;;20.40;84.60;;;;;;5022506;28;20464;-76
2023/05/10 01:39:20;;;;;;;1.30;0.40;;;20.40;84.60;;;;;;4998028;28;20530;-76
2023/05/10 01:41:56;;;;;;;0.93;0.52;;;20.40;84.60;;;;;;5003612;28;20121;-76
2023/05/10 01:44:54;;;;;;;0.50;0.50;;;20.40;84.60;;;;;;5013658;28;20050;-76
2023/05/10 01:47:40;;;;;;;0.82;0.50;;;20.40;84.60;;;;;;5016135;28;20061;-76
2023/05/10 01:50:09;;;;;;;0.75;0.60;;;20.30;84.60;;;;;;5001313;28;20515;-76
2023/05/10 01:52:40;;;;;;;1.02;0.85;;;20.40;84.60;;;;;;4997723;28;20038;-76
2023/05/10 01:55:07;;;;;;;0.90;0.60;;;20.30;84.60;;;;;;5017514;28;20042;-76
2023/05/10 01:57:34;;;;;;;0.70;0.43;;;20.40;84.60;;;;;;5002836;28;20122;-76
2023/05/10 02:00:02;;;;;;;0.95;0.52;;;20.40;84.60;;;;;;5019373;28;20686;-77
2023/05/10 02:02:28;;;;;;;0.43;0.40;;;20.30;84.60;;;;;;5005808;28;20045;-76
2023/05/10 02:04:54;;;;;;;1.58;0.70;;;20.40;84.70;;;;;;5004661;28;20037;-76
2023/05/10 02:07:19;;;;;;;0.55;0.40;;;20.40;84.60;;;;;;5020296;28;20037;-76
2023/05/10 02:09:47;;;;;;;0.70;0.50;;;20.30;84.60;;;;;;5008412;28;20111;-76
2023/05/10 02:12:13;;;;;;;1.02;0.80;;;20.30;84.60;;;;;;5030972;28;20196;-76
2023/05/10 02:14:38;;;;;;;1.27;0.45;;;20.30;84.70;;;;;;5018888;28;20046;-76
2023/05/10 02:17:05;;;;;;;0.55;0.55;;;20.40;84.70;;;;;;5021963;28;20053;-76
2023/05/10 02:19:31;;;;;;;0.77;0.70;;;20.30;84.70;;;;;;5013029;28;20426;-76
2023/05/10 02:21:56;;;;;;;0.93;0.50;;;20.30;84.70;;;;;;5007405;28;20052;-76
2023/05/10 02:24:22;;;;;;;1.67;0.40;;;20.30;84.70;;;;;;4992975;28;20173;-76
2023/05/10 02:26:48;;;;;;;0.70;0.68;;;20.30;84.70;;;;;;5002145;28;20507;-76
2023/05/10 02:29:13;;;;;;;2.08;0.60;;;20.30;84.80;;;;;;5021492;28;20053;-76
2023/05/10 02:31:39;;;;;;;0.38;0.28;;;20.30;84.80;;;;;;5022134;28;20515;-76
2023/05/10 02:34:05;;;;;;;0.50;0.50;;;20.30;84.80;;;;;;5003337;28;20037;-76
2023/05/10 02:36:31;;;;;;;0.73;0.50;;;20.30;84.90;;;;;;5034908;28;20406;-76
2023/05/10 02:38:57;;;;;;;0.73;0.55;;;20.30;85.00;;;;;;5006357;28;20057;-76
2023/05/10 02:41:23;;;;;;;0.50;0.50;;;20.30;85.80;;;;;;5005734;28;20500;-76
2023/05/10 02:43:52;;;;;;;1.23;0.70;;;20.30;85.10;;;;;;5004037;28;20046;-76
2023/05/10 02:46:18;;;;;;;1.27;0.52;;;20.30;85.30;;;;;;5022162;28;20092;-76
2023/05/10 02:48:43;;;;;;;0.75;0.47;;;20.30;85.40;;;;;;5017242;28;20093;-76
2023/05/10 02:51:09;;;;;;;0.60;0.52;;;20.30;85.40;;;;;;5004614;28;20728;-76
2023/05/10 02:53:36;;;;;;;0.50;0.40;;;20.30;85.50;;;;;;5005158;28;20172;-76
2023/05/10 02:56:06;;;;;;;0.73;0.65;;;20.30;85.60;;;;;;4990880;28;20045;-76
2023/05/10 02:58:32;;;;;;;0.82;0.65;;;20.30;85.50;;;;;;5002794;28;20653;-76
2023/05/10 03:00:58;;;;;;;0.57;0.50;;;20.30;85.60;;;;;;5003710;28;20044;-76
2023/05/10 03:03:23;;;;;;;0.98;0.60;;;20.30;85.60;;;;;;5001995;28;20068;-76
2023/05/10 03:05:49;;;;;;;0.73;0.55;;;20.30;85.60;;;;;;5003377;28;20034;-76
2023/05/10 03:08:14;;;;;;;0.50;0.50;;;20.30;85.70;;;;;;5001413;28;20100;-76
2023/05/10 03:10:50;;;;;;;1.23;0.65;;;20.30;85.70;;;;;;5021879;28;20588;-76
2023/05/10 03:13:42;;;;;;;0.60;0.50;;;20.30;85.70;;;;;;5000976;28;20097;-76
2023/05/10 03:16:14;;;;;;;1.67;0.50;;;20.30;85.60;;;;;;5005942;28;20399;-76
2023/05/10 03:19:09;;;;;;;0.40;0.40;;;20.30;85.60;;;;;;5006340;28;20050;-76
2023/05/10 03:21:35;;;;;;;1.10;0.40;;;20.20;85.50;;;;;;5006006;28;20586;-76
2023/05/10 03:24:06;;;;;;;0.73;0.40;;;20.20;85.50;;;;;;5020009;28;20034;-76
2023/05/10 03:26:31;;;;;;;0.73;0.52;;;20.30;85.60;;;;;;5020079;28;20042;-76
2023/05/10 03:28:58;;;;;;;0.80;0.70;;;20.30;85.60;;;;;;4984965;28;20540;-76
2023/05/10 03:31:24;;;;;;;0.63;0.38;;;20.30;85.60;;;;;;4988412;28;20042;-76
2023/05/10 03:33:50;;;;;;;0.80;0.50;;;20.30;85.60;;;;;;5024371;28;20038;-76
2023/05/10 03:36:16;;;;;;;0.68;0.50;;;20.30;85.60;;;;;;5006314;28;20069;-76
2023/05/10 03:38:42;;;;;;;0.70;0.60;;;20.30;85.50;;;;;;5021094;28;20192;-76
2023/05/10 03:41:07;;;;;;;1.00;0.50;;;20.20;85.50;;;;;;5006978;28;20036;-76
2023/05/10 03:43:33;;;;;;;1.13;0.50;;;20.20;85.50;;;;;;5004712;28;20042;-76
2023/05/10 03:45:58;;;;;;;0.40;0.40;;;20.20;85.50;;;;;;5007220;28;20038;-76
2023/05/10 03:48:24;;;;;;;0.68;0.40;;;20.20;85.50;;;;;;5009157;28;20033;-76
2023/05/10 03:50:49;;;;;;;1.00;0.80;;;20.20;85.50;;;;;;5008215;28;20522;-76
2023/05/10 03:53:15;;;;;;;0.50;0.50;;;20.20;86.20;;;;;;5006486;28;20050;-76
2023/05/10 03:55:41;;;;;;;0.50;0.47;;;20.20;85.40;;;;;;5006210;28;20200;-76
2023/05/10 03:58:06;;;;;;;0.82;0.68;;;20.20;86.20;;;;;;5003429;28;20046;-76
2023/05/10 04:00:32;;;;;;;0.50;0.43;;;20.20;85.30;;;;;;5004561;28;20049;-76
2023/05/10 04:02:58;;;;;;;0.73;0.73;;;20.20;85.30;;;;;;5028235;28;20174;-76
2023/05/10 04:05:23;;;;;;;1.10;0.60;;;20.20;85.30;;;;;;5004749;28;20038;-76
2023/05/10 04:07:50;;;;;;;0.50;0.50;;;20.20;85.30;;;;;;5017922;28;20043;-76
2023/05/10 04:10:16;;;;;;;0.40;0.40;;;20.20;85.30;;;;;;5006252;28;20731;-76
2023/05/10 04:12:41;;;;;;;1.08;0.75;;;20.20;85.20;;;;;;5003910;28;20053;-76
2023/05/10 04:15:08;;;;;;;0.68;0.65;;;20.20;85.30;;;;;;5005350;28;20411;-76
2023/05/10 04:17:33;;;;;;;0.57;0.50;;;20.20;85.20;;;;;;5003020;28;20549;-76
2023/05/10 04:19:59;;;;;;;0.57;0.40;;;20.20;85.20;;;;;;5001613;28;20046;-76
2023/05/10 04:22:24;;;;;;;0.70;0.65;;;20.20;85.20;;;;;;5003945;28;20065;-76
2023/05/10 04:24:50;;;;;;;0.73;0.43;;;20.20;85.10;;;;;;5008500;28;20034;-76
2023/05/10 04:27:15;;;;;;;0.63;0.50;;;20.20;85.20;;;;;;5002801;28;20034;-76
2023/05/10 04:29:41;;;;;;;0.82;0.73;;;20.20;85.10;;;;;;5002878;28;20168;-76
2023/05/10 04:32:07;;;;;;;0.68;0.65;;;20.20;85.10;;;;;;5004528;28;20523;-76
2023/05/10 04:34:34;;;;;;;1.13;0.40;;;20.10;85.00;;;;;;4996940;28;20049;-76
2023/05/10 04:36:59;;;;;;;0.75;0.50;;;20.10;85.00;;;;;;5005076;28;20048;-76
2023/05/10 04:39:25;;;;;;;0.57;0.40;;;20.20;85.10;;;;;;5002477;28;20054;-76
2023/05/10 04:41:50;;;;;;;0.75;0.60;;;20.10;85.00;;;;;;5002973;28;20049;-76
2023/05/10 04:44:16;;;;;;;1.10;0.60;;;20.10;85.00;;;;;;5005455;28;20125;-76
2023/05/10 04:46:41;;;;;;;0.45;0.40;;;20.20;85.10;;;;;;5004142;28;20503;-76
2023/05/10 04:49:07;;;;;;;0.47;0.40;;;20.20;85.00;;;;;;5002574;28;20084;-76
2023/05/10 04:51:33;;;;;;;0.40;0.30;;;20.10;85.00;;;;;;5003837;28;20034;-76
2023/05/10 04:53:58;;;;;;;1.58;0.40;;;20.10;85.00;;;;;;5003750;28;20104;-76
2023/05/10 04:56:24;;;;;;;0.82;0.30;;;20.10;85.00;;;;;;5003157;28;20034;-76
2023/05/10 04:58:49;;;;;;;0.50;0.47;;;20.10;85.00;;;;;;5001835;28;20049;-76
2023/05/10 05:01:15;;;;;;;0.80;0.60;;;20.10;84.90;;;;;;4999471;28;20057;-76
2023/05/10 05:03:41;;;;;;;1.08;0.70;;;20.10;84.90;;;;;;5003309;28;20042;-76
2023/05/10 05:06:06;;;;;;;1.45;0.60;;;20.10;85.00;;;;;;5002663;28;20034;-76
2023/05/10 05:08:32;;;;;;;0.38;0.30;;;20.10;84.90;;;;;;5024248;28;20420;-76
2023/05/10 05:10:59;;;;;;;0.73;0.50;;;20.10;84.90;;;;;;4656335;28;10000094;-75
2023/05/10 05:13:24;;;;;;;0.70;0.40;;;20.10;84.60;;;;;;4999893;28;20038;-76
2023/05/10 05:15:50;;;;;;;0.70;0.55;;;20.20;85.20;;;;;;5001933;28;20120;-75
2023/05/10 05:18:15;;;;;;;0.57;0.40;;;20.20;84.30;;;;;;4999986;28;20042;-75
2023/05/10 05:20:41;;;;;;;0.50;0.50;;;20.20;84.20;;;;;;4999469;28;20077;-75
2023/05/10 05:23:06;;;;;;;0.90;0.68;;;20.20;84.30;;;;;;5028171;28;20603;-75
2023/05/10 05:25:32;;;;;;;0.40;0.40;;;20.20;84.00;;;;;;5001361;28;20053;-75
2023/05/10 05:27:58;;;;;;;0.57;0.47;;;20.20;84.10;;;;;;5002904;28;20053;-75
2023/05/10 05:30:23;;;;;;;0.85;0.50;;;20.20;84.20;;;;;;4995189;28;20589;-75
2023/05/10 05:32:49;;;;;;;0.80;0.50;;;20.20;84.30;;;;;;4996167;28;20038;-76
2023/05/10 05:35:14;;;;;;;2.40;0.70;;;20.20;84.40;;;;;;5001327;28;20144;-75
2023/05/10 05:37:40;;;;;;;0.52;0.38;;;20.10;84.40;;;;;;5000370;28;20676;-75
2023/05/10 05:40:06;;;;;;;1.23;0.55;;;20.20;84.60;;;;;;4998005;28;20042;-75
2023/05/10 05:42:32;;;;;;;1.52;0.40;;;20.10;84.60;;;;;;5000405;28;20046;-75
2023/05/10 05:44:57;;;;;;;0.63;0.40;;;20.20;84.60;;;;;;5001452;28;20562;-75
2023/05/10 05:47:23;;;;;;;1.67;0.50;;;20.20;84.60;;;;;;4995468;28;20474;-76
2023/05/10 05:49:48;;;;;;;0.52;0.40;;;20.20;84.70;;;;;;4998315;28;20036;-76
2023/05/10 05:52:14;;;;;;;2.05;0.60;;;20.20;84.40;;;;;;5016954;28;20100;-76
2023/05/10 05:54:39;;;;;;;0.85;0.40;;;20.20;84.50;;;;;;5001495;28;20040;-76
2023/05/10 05:57:05;;;;;;;0.75;0.60;;;20.20;84.40;;;;;;4998471;28;20077;-75
2023/05/10 05:59:30;;;;;;;1.08;0.30;;;20.20;84.90;;;;;;5012102;28;20050;-76
2023/05/10 06:01:56;;;;;;;0.73;0.60;;;20.20;85.40;;;;;;4995047;28;20046;-76
2023/05/10 06:04:22;;;;;;;0.75;0.50;;;20.20;85.70;;;;;;4995811;28;20522;-76
2023/05/10 06:06:47;;;;;;;0.80;0.60;;;20.30;85.60;;;;;;5003556;28;20579;-76
2023/05/10 06:09:13;;;;;;;0.88;0.70;;;20.30;84.70;;;;;;5002136;28;20050;-76
2023/05/10 06:11:38;;;;;;;0.70;0.60;;;20.20;85.70;;;;;;4997686;28;20045;-76
2023/05/10 06:14:04;;;;;;;1.20;0.80;;;20.20;85.70;;;;;;4990459;28;20454;-76
2023/05/10 06:16:30;;;;;;;0.70;0.52;;;20.20;85.60;;;;;;4997894;28;20042;-76
2023/05/10 06:18:56;;;;;;;0.80;0.60;;;20.20;85.50;;;;;;4996317;28;20141;-75
2023/05/10 06:21:21;;;;;;;1.73;0.57;;;20.20;85.00;;;;;;5002460;28;20046;-76
2023/05/10 06:23:47;;;;;;;1.48;0.80;;;20.30;85.50;;;;;;5000658;28;20049;-76
2023/05/10 06:26:13;;;;;;;1.00;0.82;;;20.20;87.10;;;;;;4998972;28;20046;-76
2023/05/10 06:28:39;;;;;;;0.70;0.70;;;20.20;86.90;;;;;;5000985;28;20052;-76
2023/05/10 06:31:05;;;;;;;0.68;0.60;;;20.30;86.30;;;;;;5001818;28;20038;-76
2023/05/10 06:33:31;;;;;;;0.82;0.60;;;20.20;87.00;;;;;;5001560;28;20419;-76
2023/05/10 06:35:57;;;;;;;0.98;0.88;;;20.20;86.40;;;;;;5002831;28;20033;-75
2023/05/10 06:38:22;;;;;;;0.70;0.40;;;20.30;86.00;;;;;;5000894;28;20528;-75
2023/05/10 06:40:48;;;;;;;0.85;0.50;;;20.20;85.30;;;;;;4999126;28;20034;-75
2023/05/10 06:43:13;;;;;;;0.90;0.55;;;20.30;85.00;;;;;;5000055;28;20108;-75
2023/05/10 06:45:39;;;;;;;1.52;0.50;;;20.30;85.30;;;;;;5033291;28;20044;-76
2023/05/10 06:48:05;;;;;;;0.85;0.55;;;20.20;86.30;;;;;;5004965;28;20042;-75
2023/05/10 06:50:30;;;;;;;0.75;0.50;;;20.30;86.50;;;;;;5002303;28;20053;-76
2023/05/10 06:52:56;;;;;;;1.90;0.75;;;20.30;86.50;;;;;;5005108;28;20534;-76
2023/05/10 06:55:21;;;;;;;2.75;0.82;;;20.20;87.50;;;;;;5004949;28;20053;-76
2023/05/10 06:57:47;;;;;;;0.82;0.57;;;20.30;87.60;;;;;;5006914;28;20419;-76
2023/05/10 07:00:13;;;;;;;1.40;0.70;;;20.30;88.10;;;;;;5007745;28;20038;-76
2023/05/10 07:02:39;;;;;;;1.05;0.70;;;20.20;88.30;;;;;;5021893;28;20064;-76
2023/05/10 07:05:05;;;;;;;1.10;0.60;;;20.20;88.20;;;;;;5006926;28;20418;-76
2023/05/10 07:07:31;;;;;;;1.05;0.77;;;20.20;88.10;;;;;;5006564;28;20069;-76
2023/05/10 07:09:57;;;;;;;1.08;0.50;;;20.30;88.10;;;;;;5009558;28;20113;-76
2023/05/10 07:12:23;;;;;;;1.40;0.80;;;20.30;88.40;;;;;;5004780;28;20141;-76
2023/05/10 07:14:48;;;;;;;0.82;0.80;;;20.30;88.30;;;;;;5007465;28;20199;-76
2023/05/10 07:17:14;;;;;;;0.60;0.50;;;20.30;88.40;;;;;;5004410;28;20046;-76
2023/05/10 07:19:39;;;;;;;0.82;0.57;;;20.30;88.70;;;;;;5007435;28;20057;-76
2023/05/10 07:22:05;;;;;;;0.88;0.63;;;20.30;88.90;;;;;;5022219;28;20049;-76
2023/05/10 07:24:32;;;;;;;0.70;0.70;;;20.30;88.90;;;;;;5008400;28;20030;-76
2023/05/10 07:26:57;;;;;;;1.70;0.60;;;20.30;89.00;;;;;;5005422;28;20133;-76
2023/05/10 07:29:23;;;;;;;1.33;0.77;;;20.30;88.70;;;;;;5006754;28;20105;-76
2023/05/10 07:31:48;;;;;;;1.00;0.93;;;20.30;88.70;;;;;;5008106;28;20389;-76
2023/05/10 07:34:14;;;;;;;1.00;0.60;;;20.30;88.30;;;;;;5019994;28;20034;-76
2023/05/10 07:36:39;;;;;;;1.85;0.68;;;20.30;88.00;;;;;;5007680;28;20104;-76
2023/05/10 07:39:05;;;;;;;1.35;0.82;;;20.30;88.30;;;;;;5008328;28;20519;-76
2023/05/10 07:41:30;;;;;;;1.50;0.50;;;20.30;88.70;;;;;;5006838;28;20133;-76
2023/05/10 07:43:56;;;;;;;0.80;0.60;;;20.30;89.20;;;;;;5008059;28;20041;-76
2023/05/10 07:46:22;;;;;;;0.80;0.60;;;20.30;89.40;;;;;;5006046;28;20095;-77
2023/05/10 07:48:47;;;;;;;1.38;0.70;;;20.30;89.30;;;;;;5009061;28;20451;-76
2023/05/10 07:51:13;;;;;;;1.15;0.90;;;20.30;89.20;;;;;;5008396;28;20052;-76
2023/05/10 07:53:39;;;;;;;1.90;0.70;;;20.30;89.10;;;;;;5004087;28;20030;-76
2023/05/10 07:56:44;;;;;;;1.00;0.45;;;20.30;89.00;;;;;;5006139;28;20431;-76
2023/05/10 07:59:10;;;;;;;1.95;0.65;;;20.30;88.90;;;;;;4985326;28;20042;-76
2023/05/10 08:01:36;;;;;;;0.70;0.45;;;20.30;89.10;;;;;;4985921;28;20042;-76
2023/05/10 08:04:01;;;;;;;1.70;1.27;;;20.40;88.90;;;;;;4968440;28;20568;-76
2023/05/10 08:06:29;;;;;;;1.80;0.90;;;20.30;89.20;;;;;;4984872;28;20137;-76
2023/05/10 08:08:55;;;;;;;1.27;0.70;;;20.30;89.10;;;;;;4968208;28;20042;-76
2023/05/10 08:11:21;;;;;;;1.42;0.90;;;20.30;89.60;;;;;;4984585;28;20463;-76
2023/05/10 08:13:47;;;;;;;2.05;1.00;;;20.30;89.20;;;;;;4985697;28;20053;-76
2023/05/10 08:16:12;;;;;;;0.70;0.40;;;20.20;89.20;;;;;;4985440;28;20054;-76
2023/05/10 08:18:38;;;;;;;0.90;0.52;;;20.30;89.00;;;;;;4984097;28;20042;-76
2023/05/10 08:21:04;;;;;;;0.75;0.40;;;20.20;89.10;;;;;;4986032;28;20508;-76
2023/05/10 08:23:30;;;;;;;0.60;0.60;;;20.20;89.40;;;;;;4985026;28;20162;-77
2023/05/10 08:25:55;;;;;;;0.73;0.60;;;20.20;89.30;;;;;;4984686;28;20049;-76
2023/05/10 08:28:21;;;;;;;0.98;0.50;;;20.20;89.60;;;;;;4983715;28;22213;-76
2023/05/10 08:30:46;;;;;;;0.50;0.50;;;20.20;89.40;;;;;;4985603;28;20046;-76
2023/05/10 08:33:12;;;;;;;0.73;0.40;;;20.20;89.80;;;;;;4984045;28;20033;-76
2023/05/10 08:35:37;;;;;;;1.45;0.50;;;20.20;89.90;;;;;;5005901;28;20406;-76
2023/05/10 08:38:03;;;;;;;1.40;0.60;;;20.20;89.80;;;;;;5004082;28;20179;-76
2023/05/10 08:40:28;;;;;;;0.95;0.77;;;20.20;90.00;;;;;;4999437;28;20415;-76
2023/05/10 08:43:02;;;;;;;0.70;0.60;;;20.30;89.90;;;;;;5031727;28;20038;-76
2023/05/10 08:45:27;;;;;;;0.85;0.55;;;20.30;89.80;;;;;;5032229;28;20034;-76
2023/05/10 08:47:53;;;;;;;1.33;0.73;;;20.20;89.50;;;;;;5004431;28;20492;-76
2023/05/10 08:50:19;;;;;;;1.17;0.60;;;20.30;89.50;;;;;;5017922;28;20077;-76
2023/05/10 08:52:45;;;;;;;1.05;0.50;;;20.30;89.60;;;;;;5002817;28;20050;-76
2023/05/10 08:55:11;;;;;;;1.30;0.70;;;20.30;89.40;;;;;;5004012;28;20049;-76
2023/05/10 08:57:36;;;;;;;0.90;0.60;;;20.40;89.20;;;;;;5005310;28;20030;-76
2023/05/10 09:00:02;;;;;;;1.05;0.40;;;20.40;89.40;;;;;;5018811;28;20569;-76
2023/05/10 09:02:27;;;;;;;1.13;0.50;;;20.40;89.00;;;;;;5000748;28;20504;-77
2023/05/10 09:04:53;;;;;;;1.13;0.65;;;20.30;88.60;;;;;;5029552;28;20433;-76
2023/05/10 09:07:19;;;;;;;1.00;0.50;;;20.40;88.50;;;;;;5001541;28;20129;-77
2023/05/10 09:09:45;;;;;;;0.70;0.60;;;20.30;88.70;;;;;;5002013;28;20035;-77
2023/05/10 09:12:11;;;;;;;0.98;0.60;;;20.30;88.20;;;;;;5002232;28;20104;-76
2023/05/10 09:14:36;;;;;;;0.60;0.32;;;20.30;88.30;;;;;;5036622;28;20044;-76
2023/05/10 09:17:02;;;;;;;0.57;0.50;;;20.40;87.80;;;;;;5014747;28;20053;-76
2023/05/10 09:19:28;;;;;;;0.85;0.50;;;20.30;87.90;;;;;;5002480;28;20072;-77
2023/05/10 09:21:53;;;;;;;0.95;0.40;;;20.30;87.70;;;;;;5008243;28;20526;-76
2023/05/10 09:24:19;;;;;;;0.50;0.50;;;20.40;87.30;;;;;;5004682;28;20048;-76
2023/05/10 09:26:51;;;;;;;0.70;0.70;;;20.40;87.60;;;;;;5001361;28;20042;-76
2023/05/10 09:29:16;;;;;;;0.50;0.50;;;20.40;87.90;;;;;;5000271;28;20057;-76
2023/05/10 09:31:54;;;;;;;0.57;0.30;;;20.40;87.80;;;;;;5005177;28;20049;-76
2023/05/10 09:34:20;;;;;;;1.00;0.43;;;20.40;88.40;;;;;;5006533;28;20052;-76
2023/05/10 09:36:51;;;;;;;0.73;0.40;;;20.40;88.00;;;;;;5004879;28;20490;-76
2023/05/10 09:39:17;;;;;;;0.63;0.52;;;20.40;88.00;;;;;;5001850;28;20136;-76
2023/05/10 09:41:43;;;;;;;1.20;0.50;;;20.40;88.00;;;;;;5019574;28;20058;-76
2023/05/10 09:44:09;;;;;;;0.77;0.40;;;20.40;87.70;;;;;;5003371;28;20089;-76
2023/05/10 09:46:35;;;;;;;0.63;0.60;;;20.40;88.00;;;;;;5020642;28;20448;-76
2023/05/10 09:49:01;;;;;;;0.95;0.63;;;20.40;88.00;;;;;;5006845;28;20080;-76
2023/05/10 09:51:27;;;;;;;0.57;0.40;;;20.50;87.80;;;;;;5002491;28;20129;-76
2023/05/10 09:54:13;;;;;;;0.38;0.38;;;20.40;87.60;;;;;;5000140;28;20522;-76
2023/05/10 09:56:40;;;;;;;0.60;0.50;;;20.40;87.20;;;;;;5028644;28;20526;-76
2023/05/10 09:59:06;;;;;;;0.75;0.50;;;20.40;86.40;;;;;;5002184;28;20046;-76
2023/05/10 10:01:33;;;;;;;1.25;0.57;;;20.40;86.90;;;;;;4999558;28;20420;-76
2023/05/10 10:03:58;;;;;;;0.60;0.40;;;20.40;87.80;;;;;;5004145;28;20507;-76
2023/05/10 10:06:24;;;;;;;0.85;0.55;;;20.40;87.40;;;;;;5005521;28;20049;-76
2023/05/10 10:08:50;;;;;;;1.88;0.40;;;20.40;87.50;;;;;;4999844;28;20054;-76
2023/05/10 10:11:16;;;;;;;1.02;0.52;;;20.40;87.20;;;;;;5001616;28;20050;-76
2023/05/10 10:13:42;;;;;;;0.80;0.63;;;20.40;86.30;;;;;;5018342;28;20038;-76
2023/05/10 10:16:08;;;;;;;0.47;0.32;;;20.50;86.50;;;;;;5020237;28;20053;-76
2023/05/10 10:18:33;;;;;;;0.50;0.40;;;20.40;86.60;;;;;;5005603;28;20041;-76
2023/05/10 10:20:59;;;;;;;0.57;0.40;;;20.50;87.00;;;;;;5017107;28;20050;-75
2023/05/10 10:23:25;;;;;;;0.50;0.30;;;20.40;87.10;;;;;;4653311;28;10000087;-76
2023/05/10 10:25:51;;;;;;;0.75;0.40;;;20.40;88.40;;;;;;5003298;28;20101;-77
2023/05/10 10:28:27;;;;;;;0.90;0.50;;;20.50;90.10;;;;;;5016239;28;20081;-76
2023/05/10 10:30:55;;;;;;;0.82;0.57;;;20.40;89.40;;;;;;5005362;28;20583;-76
2023/05/10 10:33:54;;;;;;;0.68;0.35;;;20.50;88.90;;;;;;5020821;28;20049;-75
2023/05/10 10:36:19;;;;;;;0.40;0.40;;;20.50;88.00;;;;;;5016910;28;20060;-76
2023/05/10 10:38:48;;;;;;;0.90;0.55;;;20.50;87.60;;;;;;5020014;28;20034;-75
2023/05/10 10:41:30;;;;;;;1.40;0.43;;;20.50;87.40;;;;;;5005984;28;20057;-75
2023/05/10 10:44:30;;;;;;;0.60;0.40;;;20.50;87.30;;;;;;5034785;28;20501;-75
2023/05/10 10:47:05;;;;;;;0.98;0.65;;;20.50;86.80;;;;;;5004751;28;20073;-75
2023/05/10 10:49:32;;;;;;;0.50;0.30;;;20.60;87.00;;;;;;5004352;28;20357;-75
2023/05/10 10:52:21;;;;;;;0.47;0.40;;;20.60;87.30;;;;;;5006585;28;20046;-76
2023/05/10 10:55:12;;;;;;;0.95;0.65;;;20.60;86.80;;;;;;5006344;28;20037;-75
2023/05/10 10:57:41;;;;;;;0.45;0.35;;;20.60;87.70;;;;;;5003358;28;20531;-76
2023/05/10 11:00:22;;;;;;;0.60;0.40;;;20.60;88.20;;;;;;5003381;28;20153;-75
2023/05/10 11:03:04;;;;;;;0.40;0.40;;;20.50;87.80;;;;;;5003649;28;20613;-76
2023/05/10 11:05:32;;;;;;;0.50;0.50;;;20.50;87.60;;;;;;5021118;28;20041;-75
2023/05/10 11:07:59;;;;;;;0.75;0.60;;;20.50;87.60;;;;;;5005219;28;20574;-76
2023/05/10 11:10:25;;;;;;;0.70;0.50;;;20.50;87.30;;;;;;5020472;28;20038;-76
2023/05/10 11:13:05;;;;;;;0.80;0.40;;;20.50;87.20;;;;;;5007010;28;20125;-76
2023/05/10 11:15:32;;;;;;;0.30;0.30;;;20.50;87.30;;;;;;5006233;28;20042;-76
2023/05/10 11:17:58;;;;;;;0.40;0.40;;;20.50;86.70;;;;;;5018891;28;20045;-76
2023/05/10 11:20:28;;;;;;;0.25;0.25;;;20.50;86.90;;;;;;5016602;28;20404;-76
2023/05/10 11:22:54;;;;;;;0.50;0.40;;;20.50;87.10;;;;;;5018152;28;20045;-76
2023/05/10 11:25:27;;;;;;;0.40;0.40;;;20.50;87.10;;;;;;5004474;28;20046;-75
2023/05/10 11:27:53;;;;;;;0.50;0.50;;;20.50;86.50;;;;;;5020779;28;20041;-76
2023/05/10 11:30:19;;;;;;;0.30;0.20;;;20.50;86.30;;;;;;5003132;28;20269;-75
2023/05/10 11:32:44;;;;;;;0.50;0.40;;;20.50;86.30;;;;;;5020381;28;20058;-75
2023/05/10 11:35:11;;;;;;;0.45;0.40;;;20.50;86.10;;;;;;5007499;28;20136;-75
2023/05/10 11:37:40;;;;;;;0.60;0.40;;;20.50;86.30;;;;;;5005617;28;20037;-76
2023/05/10 11:40:09;;;;;;;0.55;0.30;;;20.50;87.00;;;;;;5006336;28;20060;-75
2023/05/10 11:42:38;;;;;;;0.85;0.43;;;20.50;86.20;;;;;;5003752;28;20033;-75
2023/05/10 11:45:04;;;;;;;0.47;0.40;;;20.60;86.10;;;;;;5002370;28;20046;-75
2023/05/10 11:47:29;;;;;;;0.30;0.20;;;20.60;86.40;;;;;;5002286;28;20068;-75
2023/05/10 11:49:55;;;;;;;0.63;0.30;;;20.60;86.70;;;;;;5005945;28;20046;-75
2023/05/10 11:52:20;;;;;;;0.35;0.30;;;20.60;87.00;;;;;;5004458;28;20033;-78
2023/05/10 11:54:52;;;;;;;0.57;0.50;;;20.60;88.10;;;;;;5006136;28;20088;-76
2023/05/10 11:57:20;;;;;;;0.70;0.30;;;20.60;88.20;;;;;;4989740;28;20474;-76
2023/05/10 11:59:46;;;;;;;0.30;0.25;;;20.60;88.80;;;;;;5003412;28;20112;-76
2023/05/10 12:02:13;;;;;;;0.40;0.40;;;20.60;87.00;;;;;;5005063;28;20099;-76
2023/05/10 12:04:39;;;;;;;0.73;0.35;;;20.60;87.40;;;;;;5020721;28;20091;-78
2023/05/10 12:07:05;;;;;;;0.60;0.60;;;20.60;87.00;;;;;;5036076;28;20042;-77
2023/05/10 12:09:30;;;;;;;0.40;0.30;;;20.60;87.40;;;;;;4988892;28;20175;-76
2023/05/10 12:11:58;;;;;;;1.50;0.30;;;20.60;88.50;;;;;;5001646;28;20045;-76
2023/05/10 12:14:24;;;;;;;0.40;0.30;;;20.60;88.20;;;;;;5031904;28;20038;-76
2023/05/10 12:16:50;;;;;;;0.50;0.40;;;20.60;88.00;;;;;;5016741;28;20422;-76
2023/05/10 12:19:19;;;;;;;1.20;0.50;;;20.60;87.80;;;;;;5003089;28;20050;-76
2023/05/10 12:21:44;;;;;;;0.73;0.40;;;20.60;88.00;;;;;;5022435;28;20041;-76
2023/05/10 12:24:10;;;;;;;0.50;0.38;;;20.60;87.30;;;;;;5022253;28;20053;-76
2023/05/10 12:26:36;;;;;;;0.55;0.40;;;20.60;87.40;;;;;;5004694;28;20420;-76
2023/05/10 12:29:18;;;;;;;0.30;0.30;;;20.60;87.90;;;;;;5002899;28;20054;-75
2023/05/10 12:31:54;;;;;;;0.50;0.43;;;20.60;87.30;;;;;;5001720;28;20070;-76
2023/05/10 12:34:26;;;;;;;1.23;0.50;;;20.60;88.10;;;;;;5005320;28;20045;-76
2023/05/10 12:36:53;;;;;;;0.40;0.40;;;20.60;88.10;;;;;;5005656;28;20038;-76
2023/05/10 12:39:18;;;;;;;1.10;0.40;;;20.60;88.00;;;;;;4655690;28;10000403;-76
2023/05/10 12:41:44;;;;;;;0.75;0.40;;;20.60;87.90;;;;;;5002567;28;20034;-76
2023/05/10 12:44:10;;;;;;;0.60;0.40;;;20.60;88.40;;;;;;5001823;28;20061;-76
2023/05/10 12:46:35;;;;;;;0.60;0.20;;;20.60;87.80;;;;;;5002346;28;20050;-76
2023/05/10 12:49:01;;;;;;;0.30;0.30;;;20.60;86.10;;;;;;5001376;28;20055;-76